createdAt,value
2023-02-11T00:01:11.452Z,156870.53
2023-02-11T00:03:39.028Z,156879.78
2023-02-11T00:06:09.578Z,156875.81
2023-02-11T00:08:37.412Z,156855.94
2023-02-11T00:11:05.003Z,156883.78
2023-02-11T00:13:32.829Z,156886.41
2023-02-11T00:15:59.953Z,156874.50
2023-02-11T00:18:28.446Z,156862.56
2023-02-11T00:20:55.609Z,156870.53
2023-02-11T00:23:23.130Z,156874.50
2023-02-11T00:25:50.543Z,156853.25
2023-02-11T00:28:18.296Z,156865.19
2023-02-11T00:30:45.676Z,156863.88
2023-02-11T00:33:13.237Z,156879.78
2023-02-11T00:35:40.359Z,156878.47
2023-02-11T00:38:08.904Z,156889.09
2023-02-11T00:40:36.424Z,156897.03
2023-02-11T00:43:04.516Z,156881.09
2023-02-11T00:45:31.852Z,156883.78
2023-02-11T00:47:59.472Z,156859.88
2023-02-11T00:50:28.792Z,156883.78
2023-02-11T00:52:56.697Z,156873.16
2023-02-11T00:55:23.916Z,156857.25
2023-02-11T00:57:51.950Z,156887.72
2023-02-11T01:00:19.230Z,156886.41
2023-02-11T01:02:46.938Z,156899.66
2023-02-11T01:05:14.345Z,156875.81
2023-02-11T01:07:42.106Z,156900.97
2023-02-11T01:10:09.459Z,156894.34
2023-02-11T01:12:37.508Z,156899.66
2023-02-11T01:15:05.932Z,156893.03
2023-02-11T01:17:34.297Z,156883.78
2023-02-11T01:20:06.945Z,156882.47
2023-02-11T01:22:37.580Z,156877.16
2023-02-11T01:25:05.062Z,156873.16
2023-02-11T01:27:32.833Z,156883.78
2023-02-11T01:30:00.187Z,156879.78
2023-02-11T01:32:27.713Z,156883.78
2023-02-11T01:34:55.137Z,156867.88
2023-02-11T01:37:22.557Z,156867.88
2023-02-11T01:39:50.076Z,156883.78
2023-02-11T01:42:20.937Z,156877.16
2023-02-11T01:44:52.780Z,156895.72
2023-02-11T01:47:21.381Z,156891.72
2023-02-11T01:49:52.738Z,156894.34
2023-02-11T01:52:31.952Z,156885.09
2023-02-11T01:55:21.118Z,156889.09
2023-02-11T01:57:52.599Z,156885.09
2023-02-11T02:00:22.950Z,156891.72
2023-02-11T02:02:56.793Z,156899.66
2023-02-11T02:05:31.476Z,156895.72
2023-02-11T02:08:10.570Z,156916.94
2023-02-11T02:10:41.439Z,156897.03
2023-02-11T02:13:09.483Z,156894.34
2023-02-11T02:15:38.067Z,156902.34
2023-02-11T02:18:28.524Z,156887.72
2023-02-11T02:21:33.616Z,156883.78
2023-02-11T02:24:04.350Z,156877.16
2023-02-11T02:27:13.897Z,156865.19
2023-02-11T02:29:56.899Z,156871.84
2023-02-11T02:32:42.940Z,156859.88
2023-02-11T02:35:31.984Z,156848.00
2023-02-11T02:38:12.751Z,156854.63
2023-02-11T02:40:48.053Z,156849.31
2023-02-11T02:43:15.807Z,156850.63
2023-02-11T02:45:43.334Z,156853.25
2023-02-11T02:48:28.149Z,156840.06
2023-02-11T02:51:33.555Z,156845.31
2023-02-11T02:54:38.176Z,156861.25
2023-02-11T02:57:24.720Z,156855.94
2023-02-11T02:59:58.043Z,156862.56
2023-02-11T03:02:56.405Z,156861.25
2023-02-11T03:06:09.314Z,156877.16
2023-02-11T03:08:57.756Z,156871.84
2023-02-11T03:11:26.325Z,156883.78
2023-02-11T03:13:55.281Z,156867.88
2023-02-11T03:16:26.946Z,156875.81
2023-02-11T03:19:02.628Z,156866.53
2023-02-11T03:21:31.623Z,156866.53
2023-02-11T03:24:04.033Z,156877.16
2023-02-11T03:26:38.577Z,156871.84
2023-02-11T03:29:25.201Z,156878.47
2023-02-11T03:32:30.725Z,156878.47
2023-02-11T03:35:08.244Z,156861.25
2023-02-11T03:37:40.340Z,156879.78
2023-02-11T03:40:12.077Z,156861.25
2023-02-11T03:42:44.331Z,156865.19
2023-02-11T03:45:15.910Z,156863.88
2023-02-11T03:47:47.140Z,156870.53
2023-02-11T03:50:15.810Z,156869.19
2023-02-11T03:52:43.191Z,156861.25
2023-02-11T03:55:14.005Z,156873.16
2023-02-11T03:57:41.451Z,156871.84
2023-02-11T04:00:12.166Z,156861.25
2023-02-11T04:02:40.246Z,156861.25
2023-02-11T04:05:14.162Z,156842.69
2023-02-11T04:07:41.575Z,156854.63
2023-02-11T04:10:09.438Z,156849.31
2023-02-11T04:12:36.607Z,156853.25
2023-02-11T04:15:04.925Z,156854.63
2023-02-11T04:17:32.200Z,156849.31
2023-02-11T04:19:59.805Z,156846.69
2023-02-11T04:22:27.322Z,156851.94
2023-02-11T04:24:54.720Z,156821.47
2023-02-11T04:27:21.934Z,156833.44
2023-02-11T04:29:49.724Z,156838.69
2023-02-11T04:32:16.938Z,156817.50
2023-02-11T04:34:44.606Z,156825.47
2023-02-11T04:37:11.941Z,156820.16
2023-02-11T04:39:39.411Z,156824.13
2023-02-11T04:42:06.922Z,156808.22
2023-02-11T04:44:34.726Z,156809.53
2023-02-11T04:47:02.104Z,156793.66
2023-02-11T04:49:29.786Z,156805.59
2023-02-11T04:51:57.137Z,156798.97
2023-02-11T04:54:24.615Z,156797.66
2023-02-11T04:56:51.837Z,156796.28
2023-02-11T04:59:19.785Z,156810.84
2023-02-11T05:01:47.241Z,156804.22
2023-02-11T05:04:14.850Z,156805.59
2023-02-11T05:06:42.176Z,156805.59
2023-02-11T05:09:11.764Z,156793.66
2023-02-11T05:11:39.638Z,156797.66
2023-02-11T05:14:07.427Z,156816.16
2023-02-11T05:16:34.941Z,156825.47
2023-02-11T05:19:02.695Z,156825.47
2023-02-11T05:21:30.096Z,156814.84
2023-02-11T05:23:58.033Z,156825.47
2023-02-11T05:26:25.703Z,156833.44
2023-02-11T05:28:53.316Z,156816.16
2023-02-11T05:31:20.675Z,156846.69
2023-02-11T05:33:48.334Z,156855.94
2023-02-11T05:36:16.970Z,156851.94
2023-02-11T05:38:44.487Z,156862.56
2023-02-11T05:41:12.100Z,156862.56
2023-02-11T05:43:39.969Z,156859.88
2023-02-11T05:46:07.298Z,156875.81
2023-02-11T05:48:35.341Z,156870.53
2023-02-11T05:51:02.761Z,156859.88
2023-02-11T05:53:30.727Z,156878.47
2023-02-11T05:55:58.125Z,156890.41
2023-02-11T05:58:25.913Z,156874.50
2023-02-11T06:00:53.189Z,156863.88
2023-02-11T06:03:21.234Z,156862.56
2023-02-11T06:05:48.703Z,156867.88
2023-02-11T06:08:16.535Z,156866.53
2023-02-11T06:10:45.832Z,156861.25
2023-02-11T06:13:13.657Z,156870.53
2023-02-11T06:15:40.746Z,156873.16
2023-02-11T06:18:08.846Z,156881.09
2023-02-11T06:20:36.197Z,156873.16
2023-02-11T06:23:03.732Z,156882.47
2023-02-11T06:25:30.929Z,156890.41
2023-02-11T06:27:58.416Z,156895.72
2023-02-11T06:30:25.644Z,156920.88
2023-02-11T06:32:53.459Z,156911.59
2023-02-11T06:35:20.664Z,156915.56
2023-02-11T06:37:49.830Z,156910.28
2023-02-11T06:40:17.055Z,156918.25
2023-02-11T06:42:44.822Z,156919.56
2023-02-11T06:45:13.445Z,156939.44
2023-02-11T06:47:42.183Z,156936.78
2023-02-11T06:50:13.303Z,156946.09
2023-02-11T06:52:41.795Z,156979.19
2023-02-11T06:55:09.314Z,156976.56
2023-02-11T06:57:36.925Z,156967.28
2023-02-11T07:00:05.695Z,156971.25
2023-02-11T07:02:33.504Z,156952.72
2023-02-11T07:05:00.816Z,156968.59
2023-02-11T07:07:28.665Z,156967.28
2023-02-11T07:09:56.113Z,156980.56
2023-02-11T07:12:24.011Z,156952.72
2023-02-11T07:14:51.454Z,156956.66
2023-02-11T07:17:19.149Z,156946.09
2023-02-11T07:19:46.438Z,156956.66
2023-02-11T07:22:14.125Z,156947.41
2023-02-11T07:24:41.800Z,156924.88
2023-02-11T07:27:09.576Z,156944.75
2023-02-11T07:29:36.890Z,156944.75
2023-02-11T07:32:04.661Z,156915.56
2023-02-11T07:34:32.025Z,156894.34
2023-02-11T07:36:59.747Z,156900.97
2023-02-11T07:39:27.676Z,156885.09
2023-02-11T07:41:55.558Z,156897.03
2023-02-11T07:44:23.584Z,156899.66
2023-02-11T07:46:51.255Z,156870.53
2023-02-11T07:49:18.519Z,156871.84
2023-02-11T07:51:47.366Z,156865.19
2023-02-11T07:54:14.603Z,156886.41
2023-02-11T07:56:42.255Z,156894.34
2023-02-11T07:59:11.150Z,156903.66
2023-02-11T08:01:39.044Z,156907.63
2023-02-11T08:04:06.245Z,156911.59
2023-02-11T08:06:35.480Z,156891.72
2023-02-11T08:09:07.971Z,156899.66
2023-02-11T08:11:35.821Z,156889.09
2023-02-11T08:14:03.118Z,156879.78
2023-02-11T08:16:33.486Z,156883.78
2023-02-11T08:19:04.034Z,156878.47
2023-02-11T08:21:31.911Z,156886.41
2023-02-11T08:23:59.222Z,156889.09
2023-02-11T08:26:29.178Z,156904.97
2023-02-11T08:28:57.450Z,156891.72
2023-02-11T08:31:28.132Z,156900.97
2023-02-11T08:33:58.291Z,156904.97
2023-02-11T08:36:29.418Z,156900.97
2023-02-11T08:39:16.034Z,156897.03
2023-02-11T08:41:47.179Z,156889.09
2023-02-11T08:44:14.496Z,156891.72
2023-02-11T08:46:41.884Z,156890.41
2023-02-11T08:49:09.299Z,156906.28
2023-02-11T08:51:37.039Z,156912.94
2023-02-11T08:54:04.589Z,156887.72
2023-02-11T08:56:33.371Z,156911.59
2023-02-11T08:59:00.591Z,156899.66
2023-02-11T09:01:30.412Z,156931.50
2023-02-11T09:03:59.083Z,156957.97
2023-02-11T09:06:27.913Z,156955.34
2023-02-11T09:08:56.649Z,156952.72
2023-02-11T09:11:36.792Z,156971.25
2023-02-11T09:14:05.052Z,156964.59
2023-02-11T09:16:36.567Z,156965.97
2023-02-11T09:19:06.383Z,156967.28
2023-02-11T09:21:35.062Z,156959.34
2023-02-11T09:24:02.866Z,156936.78
2023-02-11T09:26:32.553Z,156942.09
2023-02-11T09:29:00.515Z,156934.13
2023-02-11T09:31:30.695Z,156940.75
2023-02-11T09:34:00.612Z,156940.75
2023-02-11T09:36:34.440Z,156947.41
2023-02-11T09:39:02.705Z,156954.03
2023-02-11T09:41:37.798Z,156931.50
2023-02-11T09:44:09.952Z,156912.94
2023-02-11T09:46:41.588Z,156904.97
2023-02-11T09:49:19.077Z,156914.25
2023-02-11T09:51:53.898Z,156906.28
2023-02-11T09:54:30.419Z,156904.97
2023-02-11T09:56:58.238Z,156906.28
2023-02-11T09:59:25.505Z,156875.81
2023-02-11T10:02:01.035Z,156920.88
2023-02-11T10:04:47.156Z,156920.88
2023-02-11T10:07:56.598Z,156915.56
2023-02-11T10:10:23.958Z,156919.56
2023-02-11T10:12:56.698Z,156920.88
2023-02-11T10:15:27.437Z,156920.88
2023-02-11T10:18:16.977Z,156915.56
2023-02-11T10:21:26.397Z,156906.28
2023-02-11T10:23:56.865Z,156923.56
2023-02-11T10:26:24.336Z,156926.19
2023-02-11T10:28:54.725Z,156936.78
2023-02-11T10:31:26.678Z,156936.78
2023-02-11T10:34:04.723Z,156930.13
2023-02-11T10:36:37.377Z,156934.13
2023-02-11T10:39:24.509Z,156922.19
2023-02-11T10:41:55.968Z,156944.75
2023-02-11T10:44:43.748Z,156952.72
2023-02-11T10:47:22.929Z,156954.03
2023-02-11T10:49:50.607Z,156950.03
2023-02-11T10:52:17.981Z,156959.34
2023-02-11T10:55:04.239Z,156964.59
2023-02-11T10:57:35.550Z,156963.28
2023-02-11T11:00:09.079Z,156960.66
2023-02-11T11:02:39.011Z,156955.34
2023-02-11T11:05:16.552Z,156960.66
2023-02-11T11:07:54.810Z,156947.41
2023-02-11T11:10:47.150Z,156979.19
2023-02-11T11:13:32.430Z,156976.56
2023-02-11T11:16:28.323Z,156968.59
2023-02-11T11:19:07.840Z,156992.44
2023-02-11T11:21:47.370Z,156987.19
2023-02-11T11:24:38.666Z,156981.88
2023-02-11T11:27:06.528Z,157011.03
2023-02-11T11:29:45.273Z,156999.09
2023-02-11T11:32:20.775Z,157013.66
2023-02-11T11:34:56.602Z,157012.34
2023-02-11T11:37:28.188Z,157015.03
2023-02-11T11:39:59.722Z,157024.28
2023-02-11T11:42:35.015Z,157041.50
2023-02-11T11:45:23.302Z,157024.28
2023-02-11T11:48:04.323Z,157040.19
2023-02-11T11:50:37.957Z,157041.50
2023-02-11T11:53:11.263Z,157037.56
2023-02-11T11:55:42.619Z,157026.94
2023-02-11T11:58:23.777Z,157038.88
2023-02-11T12:01:09.958Z,157046.81
2023-02-11T12:04:05.777Z,157048.16
2023-02-11T12:06:36.215Z,157052.13
2023-02-11T12:09:08.904Z,157037.56
2023-02-11T12:12:00.607Z,157050.81
2023-02-11T12:14:35.326Z,157048.16
2023-02-11T12:17:33.284Z,157066.72
2023-02-11T12:20:23.878Z,157056.09
2023-02-11T12:23:30.342Z,157066.72
2023-02-11T12:26:16.071Z,157070.72
2023-02-11T12:29:40.630Z,157086.63
2023-02-11T12:32:14.293Z,157087.94
2023-02-11T12:34:52.757Z,157081.31
2023-02-11T12:37:58.157Z,157115.78
2023-02-11T12:40:34.440Z,157109.16
2023-02-11T12:43:24.259Z,157121.09
2023-02-11T12:46:13.200Z,157137.00
2023-02-11T12:49:02.209Z,157138.31
2023-02-11T12:52:00.137Z,157148.97
2023-02-11T12:54:30.938Z,157148.97
2023-02-11T12:57:08.295Z,157141.00
2023-02-11T12:59:46.315Z,157159.56
2023-02-11T13:02:52.270Z,157175.50
2023-02-11T13:05:30.805Z,157187.41
2023-02-11T13:08:05.963Z,157170.19
2023-02-11T13:10:38.984Z,157199.38
2023-02-11T13:13:23.180Z,157213.94
2023-02-11T13:16:10.320Z,157209.94
2023-02-11T13:18:49.628Z,157227.22
2023-02-11T13:21:29.960Z,157215.28
2023-02-11T13:24:12.686Z,157208.63
2023-02-11T13:26:51.369Z,157233.88
2023-02-11T13:29:37.925Z,157243.13
2023-02-11T13:32:13.798Z,157255.09
2023-02-11T13:34:44.187Z,157252.47
2023-02-11T13:37:29.207Z,157256.41
2023-02-11T13:40:08.131Z,157252.47
2023-02-11T13:42:50.511Z,157249.78
2023-02-11T13:45:29.389Z,157245.81
2023-02-11T13:47:59.180Z,157252.47
2023-02-11T13:50:27.738Z,157259.03
2023-02-11T13:53:03.566Z,157264.34
2023-02-11T13:55:31.278Z,157260.41
2023-02-11T13:58:08.055Z,157268.38
2023-02-11T14:00:35.586Z,157268.38
2023-02-11T14:03:42.277Z,157265.69
2023-02-11T14:06:28.061Z,157289.59
2023-02-11T14:09:14.674Z,157280.31
2023-02-11T14:11:41.984Z,157285.59
2023-02-11T14:14:25.747Z,157292.22
2023-02-11T14:16:59.508Z,157289.59
2023-02-11T14:19:38.631Z,157296.22
2023-02-11T14:22:29.014Z,157294.91
2023-02-11T14:24:59.120Z,157300.19
2023-02-11T14:27:26.469Z,157301.56
2023-02-11T14:30:15.914Z,157294.91
2023-02-11T14:32:56.730Z,157285.59
2023-02-11T14:35:39.628Z,157304.19
2023-02-11T14:38:44.348Z,157305.50
2023-02-11T14:41:29.959Z,157314.78
2023-02-11T14:44:04.308Z,157318.78
2023-02-11T14:46:35.440Z,157314.78
2023-02-11T14:49:04.021Z,157318.78
2023-02-11T14:51:36.333Z,157324.09
2023-02-11T14:54:17.951Z,157324.09
2023-02-11T14:56:46.960Z,157338.69
2023-02-11T14:59:22.579Z,157334.69
2023-02-11T15:01:52.478Z,157332.06
2023-02-11T15:04:27.292Z,157330.75
2023-02-11T15:06:56.502Z,157337.38
2023-02-11T15:09:29.456Z,157313.47
2023-02-11T15:11:56.907Z,157332.06
2023-02-11T15:14:30.692Z,157336.00
2023-02-11T15:17:06.840Z,157334.69
2023-02-11T15:19:41.291Z,157326.75
2023-02-11T15:22:18.623Z,157329.41
2023-02-11T15:24:46.571Z,157345.34
2023-02-11T15:27:16.428Z,157353.28
2023-02-11T15:29:49.459Z,157344.00
2023-02-11T15:32:17.959Z,157365.25
2023-02-11T15:34:46.895Z,157362.56
2023-02-11T15:37:29.876Z,157362.56
2023-02-11T15:40:13.017Z,157379.84
2023-02-11T15:42:52.451Z,157379.84
2023-02-11T15:45:20.785Z,157374.53
2023-02-11T15:47:54.341Z,157389.13
2023-02-11T15:50:24.889Z,157399.75
2023-02-11T15:52:52.924Z,157390.44
2023-02-11T15:55:21.072Z,157394.44
2023-02-11T15:57:58.808Z,157397.09
2023-02-11T16:00:34.546Z,157397.09
2023-02-11T16:03:02.184Z,157417.00
2023-02-11T16:05:36.604Z,157428.97
2023-02-11T16:08:29.557Z,157435.59
2023-02-11T16:11:03.428Z,157454.16
2023-02-11T16:13:34.673Z,157478.09
2023-02-11T16:16:15.761Z,157458.16
2023-02-11T16:19:04.638Z,157499.31
2023-02-11T16:21:39.457Z,157517.88
2023-02-11T16:24:08.349Z,157501.97
2023-02-11T16:26:39.601Z,157521.88
2023-02-11T16:29:11.260Z,157533.84
2023-02-11T16:31:41.232Z,157525.91
2023-02-11T16:34:14.711Z,157543.13
2023-02-11T16:36:42.663Z,157543.13
2023-02-11T16:39:10.803Z,157524.53
2023-02-11T16:41:38.074Z,157523.22
2023-02-11T16:44:06.046Z,157520.56
2023-02-11T16:46:33.984Z,157529.84
2023-02-11T16:49:12.365Z,157531.16
2023-02-11T16:51:41.539Z,157535.16
2023-02-11T16:54:15.126Z,157531.16
2023-02-11T16:56:43.282Z,157535.16
2023-02-11T16:59:11.996Z,157549.78
2023-02-11T17:01:40.054Z,157551.09
2023-02-11T17:04:11.977Z,157553.78
2023-02-11T17:06:39.159Z,157552.41
2023-02-11T17:09:08.254Z,157565.69
2023-02-11T17:11:35.542Z,157549.78
2023-02-11T17:14:03.187Z,157563.06
2023-02-11T17:16:30.794Z,157561.75
2023-02-11T17:18:58.534Z,157571.03
2023-02-11T17:21:29.566Z,157561.75
2023-02-11T17:23:58.634Z,157577.66
2023-02-11T17:26:26.079Z,157577.66
2023-02-11T17:28:53.867Z,157576.34
2023-02-11T17:31:21.488Z,157583.00
2023-02-11T17:33:49.245Z,157576.34
2023-02-11T17:36:16.481Z,157590.94
2023-02-11T17:38:44.206Z,157594.91
2023-02-11T17:41:11.557Z,157590.94
2023-02-11T17:43:42.984Z,157576.34
2023-02-11T17:46:11.355Z,157590.94
2023-02-11T17:48:38.958Z,157584.31
2023-02-11T17:51:17.221Z,157596.28
2023-02-11T17:53:44.764Z,157577.66
2023-02-11T17:56:11.996Z,157567.03
2023-02-11T17:58:39.692Z,157580.31
2023-02-11T18:01:07.033Z,157581.66
2023-02-11T18:03:34.600Z,157584.31
2023-02-11T18:06:06.861Z,157586.94
2023-02-11T18:08:35.483Z,157594.91
2023-02-11T18:11:03.064Z,157592.28
2023-02-11T18:13:30.838Z,157602.94
2023-02-11T18:16:05.548Z,157600.22
2023-02-11T18:18:33.285Z,157620.16
2023-02-11T18:21:04.087Z,157618.84
2023-02-11T18:23:31.720Z,157612.19
2023-02-11T18:25:59.288Z,157605.56
2023-02-11T18:28:27.012Z,157622.81
2023-02-11T18:30:59.544Z,157622.81
2023-02-11T18:33:27.594Z,157630.81
2023-02-11T18:35:55.041Z,157636.09
2023-02-11T18:38:23.064Z,157636.09
2023-02-11T18:40:52.452Z,157638.78
2023-02-11T18:43:20.671Z,157637.41
2023-02-11T18:45:49.338Z,157626.81
2023-02-11T18:48:18.334Z,157638.78
2023-02-11T18:50:46.472Z,157637.41
2023-02-11T18:53:15.822Z,157632.13
2023-02-11T18:55:44.955Z,157637.41
2023-02-11T18:58:13.368Z,157629.44
2023-02-11T19:00:43.364Z,157634.78
2023-02-11T19:03:11.354Z,157628.13
2023-02-11T19:05:49.999Z,157622.81
2023-02-11T19:08:17.935Z,157620.16
2023-02-11T19:10:47.035Z,157624.16
2023-02-11T19:13:15.312Z,157622.81
2023-02-11T19:15:44.284Z,157626.81
2023-02-11T19:18:13.073Z,157621.47
2023-02-11T19:20:41.972Z,157614.84
2023-02-11T19:23:10.567Z,157625.50
2023-02-11T19:25:38.450Z,157616.16
2023-02-11T19:28:06.262Z,157613.53
2023-02-11T19:30:33.543Z,157597.59
2023-02-11T19:33:01.199Z,157617.53
2023-02-11T19:35:28.577Z,157617.53
2023-02-11T19:37:56.255Z,157621.47
2023-02-11T19:40:23.425Z,157629.44
2023-02-11T19:42:51.028Z,157626.81
2023-02-11T19:45:18.476Z,157634.78
2023-02-11T19:47:46.286Z,157633.44
2023-02-11T19:50:13.516Z,157633.44
2023-02-11T19:52:41.318Z,157626.81
2023-02-11T19:55:09.853Z,157632.13
2023-02-11T19:57:37.617Z,157625.50
2023-02-11T20:00:06.302Z,157636.09
2023-02-11T20:02:40.470Z,157629.44
2023-02-11T20:05:08.336Z,157625.50
2023-02-11T20:07:35.936Z,157620.16
2023-02-11T20:10:03.521Z,157617.53
2023-02-11T20:12:31.354Z,157640.09
2023-02-11T20:14:58.592Z,157622.81
2023-02-11T20:17:26.323Z,157624.16
2023-02-11T20:19:54.700Z,157610.88
2023-02-11T20:22:22.960Z,157621.47
2023-02-11T20:24:51.543Z,157626.81
2023-02-11T20:27:20.685Z,157614.84
2023-02-11T20:29:48.636Z,157612.19
2023-02-11T20:32:16.860Z,157606.88
2023-02-11T20:34:44.954Z,157597.59
2023-02-11T20:37:12.838Z,157576.34
2023-02-11T20:39:42.079Z,157597.59
2023-02-11T20:42:12.049Z,157578.97
2023-02-11T20:44:39.635Z,157598.91
2023-02-11T20:47:08.075Z,157589.63
2023-02-11T20:49:36.358Z,157597.59
2023-02-11T20:52:09.483Z,157594.91
2023-02-11T20:54:37.256Z,157593.59
2023-02-11T20:57:05.933Z,157583.00
2023-02-11T20:59:34.129Z,157581.66
2023-02-11T21:02:02.374Z,157594.91
2023-02-11T21:04:33.215Z,157597.59
2023-02-11T21:07:04.643Z,157581.66
2023-02-11T21:09:34.271Z,157590.94
2023-02-11T21:12:03.305Z,157565.69
2023-02-11T21:14:31.908Z,157532.47
2023-02-11T21:17:00.615Z,157521.88
2023-02-11T21:19:28.960Z,157504.66
2023-02-11T21:22:00.753Z,157486.03
2023-02-11T21:24:28.546Z,157459.47
2023-02-11T21:26:56.271Z,157459.47
2023-02-11T21:29:23.629Z,157440.88
2023-02-11T21:31:51.745Z,157435.59
2023-02-11T21:34:20.396Z,157414.38
2023-02-11T21:36:48.092Z,157414.38
2023-02-11T21:39:15.553Z,157403.72
2023-02-11T21:41:43.243Z,157390.44
2023-02-11T21:44:11.034Z,157389.13
2023-02-11T21:46:39.033Z,157390.44
2023-02-11T21:49:06.413Z,157366.56
2023-02-11T21:51:34.055Z,157381.16
2023-02-11T21:54:02.576Z,157375.84
2023-02-11T21:56:32.119Z,157374.53
2023-02-11T21:59:00.386Z,157363.88
2023-02-11T22:01:32.833Z,157337.38
2023-02-11T22:04:00.598Z,157326.75
2023-02-11T22:06:31.291Z,157321.41
2023-02-11T22:08:59.784Z,157298.88
2023-02-11T22:11:27.709Z,157292.22
2023-02-11T22:13:56.535Z,157273.69
2023-02-11T22:16:24.523Z,157259.03
2023-02-11T22:18:52.168Z,157248.44
2023-02-11T22:21:22.720Z,157239.19
2023-02-11T22:23:51.104Z,157232.53
2023-02-11T22:26:21.424Z,157219.28
2023-02-11T22:28:51.591Z,157194.03
2023-02-11T22:31:31.474Z,157179.47
2023-02-11T22:33:59.916Z,157159.56
2023-02-11T22:36:33.315Z,157133.00
2023-02-11T22:39:10.827Z,157109.16
2023-02-11T22:41:40.826Z,157102.53
2023-02-11T22:44:08.620Z,157095.88
2023-02-11T22:46:36.389Z,157061.41
2023-02-11T22:49:04.306Z,157048.16
2023-02-11T22:51:32.379Z,157026.94
2023-02-11T22:54:02.069Z,157011.03
2023-02-11T22:56:31.607Z,156984.50
2023-02-11T22:59:00.704Z,156955.34
2023-02-11T23:01:29.718Z,156936.78
2023-02-11T23:03:57.400Z,156910.28
2023-02-11T23:06:25.149Z,156912.94
2023-02-11T23:08:52.404Z,156878.47
2023-02-11T23:11:26.483Z,156883.78
2023-02-11T23:13:54.632Z,156867.88
2023-02-11T23:16:24.544Z,156867.88
2023-02-11T23:18:53.561Z,156859.88
2023-02-11T23:21:25.783Z,156857.25
2023-02-11T23:24:02.198Z,156842.69
2023-02-11T23:26:31.038Z,156829.44
2023-02-11T23:28:59.280Z,156821.47
2023-02-11T23:31:34.228Z,156826.81
2023-02-11T23:34:02.606Z,156820.16
2023-02-11T23:36:31.334Z,156808.22
2023-02-11T23:38:59.041Z,156800.28
2023-02-11T23:41:27.473Z,156760.50
2023-02-11T23:43:57.341Z,156775.09
2023-02-11T23:46:28.740Z,156775.09
2023-02-11T23:48:56.409Z,156783.03
2023-02-11T23:51:24.755Z,156769.81
2023-02-11T23:53:52.840Z,156779.09
2023-02-11T23:56:26.554Z,156787.03
2023-02-11T23:58:56.057Z,156780.41
